createdAt,value
2017-07-15T00:01:20.409Z,19.20
2017-07-15T00:03:48.784Z,25.53
2017-07-15T00:06:16.397Z,21.33
2017-07-15T00:08:43.992Z,20.67
2017-07-15T00:11:11.614Z,22.07
2017-07-15T00:13:39.241Z,22.30
2017-07-15T00:16:07.605Z,24.80
2017-07-15T00:18:35.257Z,20.50
2017-07-15T00:21:02.907Z,21.97
2017-07-15T00:23:30.537Z,24.80
2017-07-15T00:25:58.186Z,28.53
2017-07-15T00:28:25.747Z,23.50
2017-07-15T00:30:53.366Z,18.03
2017-07-15T00:33:21.733Z,24.00
2017-07-15T00:35:49.364Z,23.40
2017-07-15T00:38:16.921Z,23.07
2017-07-15T00:40:44.552Z,22.60
2017-07-15T00:43:12.908Z,16.97
2017-07-15T00:45:40.558Z,19.07
2017-07-15T00:48:08.147Z,18.37
2017-07-15T00:50:36.576Z,16.60
2017-07-15T00:53:04.143Z,24.13
2017-07-15T00:55:31.774Z,15.30
2017-07-15T00:57:59.379Z,15.50
2017-07-15T01:00:27.058Z,22.33
2017-07-15T01:02:54.719Z,15.97
2017-07-15T01:05:22.323Z,15.83
2017-07-15T01:07:49.958Z,15.10
2017-07-15T01:10:17.689Z,13.80
2017-07-15T01:12:45.283Z,17.07
2017-07-15T01:15:12.954Z,14.40
2017-07-15T01:17:41.306Z,12.93
2017-07-15T01:20:08.929Z,12.40
2017-07-15T01:22:36.553Z,11.70
2017-07-15T01:25:04.178Z,16.33
2017-07-15T01:27:31.818Z,11.40
2017-07-15T01:29:59.408Z,10.63
2017-07-15T01:32:27.150Z,13.53
2017-07-15T01:34:54.747Z,20.23
2017-07-15T01:37:22.393Z,14.93
2017-07-15T01:39:49.962Z,18.00
2017-07-15T01:42:17.604Z,22.23
2017-07-15T01:44:45.247Z,11.53
2017-07-15T01:47:12.895Z,12.57
2017-07-15T01:49:40.572Z,13.97
2017-07-15T01:52:08.207Z,14.17
2017-07-15T01:54:35.807Z,11.43
2017-07-15T01:57:03.403Z,9.97
2017-07-15T01:59:31.807Z,15.47
2017-07-15T02:01:59.448Z,10.80
2017-07-15T02:04:27.075Z,12.60
2017-07-15T02:06:54.764Z,15.17
2017-07-15T02:09:22.409Z,11.30
2017-07-15T02:11:50.043Z,12.93
2017-07-15T02:14:17.641Z,12.13
2017-07-15T02:16:45.303Z,12.63
2017-07-15T02:19:12.963Z,16.07
2017-07-15T02:21:40.607Z,15.23
2017-07-15T02:24:08.290Z,10.47
2017-07-15T02:26:35.918Z,13.73
2017-07-15T02:29:03.538Z,16.73
2017-07-15T02:31:31.117Z,14.27
2017-07-15T02:33:58.708Z,9.17
2017-07-15T02:36:26.343Z,13.53
2017-07-15T02:38:54.730Z,8.67
2017-07-15T02:41:22.398Z,8.83
2017-07-15T02:43:50.069Z,12.03
2017-07-15T02:46:17.695Z,10.03
2017-07-15T02:48:45.357Z,10.97
2017-07-15T02:51:13.758Z,9.90
2017-07-15T02:53:41.415Z,9.40
2017-07-15T02:56:09.037Z,12.50
2017-07-15T02:58:36.650Z,9.70
2017-07-15T03:01:04.301Z,8.83
2017-07-15T03:03:31.946Z,12.07
2017-07-15T03:05:59.583Z,14.03
2017-07-15T03:08:27.168Z,8.10
2017-07-15T03:10:54.768Z,8.20
2017-07-15T03:13:22.436Z,10.60
2017-07-15T03:15:50.024Z,12.20
2017-07-15T03:18:17.622Z,10.07
2017-07-15T03:20:46.033Z,8.87
2017-07-15T03:23:13.644Z,8.37
2017-07-15T03:25:41.244Z,13.10
2017-07-15T03:28:09.615Z,10.13
2017-07-15T03:30:37.995Z,8.10
2017-07-15T03:33:05.607Z,9.83
2017-07-15T03:35:33.228Z,10.67
2017-07-15T03:38:00.845Z,12.23
2017-07-15T03:40:28.441Z,12.57
2017-07-15T03:42:56.809Z,13.17
2017-07-15T03:45:25.199Z,12.80
2017-07-15T03:47:53.553Z,10.30
2017-07-15T03:50:21.111Z,14.53
2017-07-15T03:52:48.756Z,13.57
2017-07-15T03:55:16.365Z,11.70
2017-07-15T03:57:44.725Z,12.40
2017-07-15T04:00:12.327Z,14.30
2017-07-15T04:02:39.919Z,13.90
2017-07-15T04:05:07.473Z,13.00
2017-07-15T04:07:35.007Z,14.83
2017-07-15T04:10:02.551Z,14.43
2017-07-15T04:12:30.128Z,11.73
2017-07-15T04:14:57.704Z,12.80
2017-07-15T04:17:25.316Z,14.10
2017-07-15T04:19:52.966Z,15.80
2017-07-15T04:22:20.572Z,12.83
2017-07-15T04:24:48.163Z,11.50
2017-07-15T04:27:15.764Z,17.73
2017-07-15T04:29:43.329Z,13.10
2017-07-15T04:32:10.978Z,14.20
2017-07-15T04:34:38.580Z,14.63
2017-07-15T04:37:06.938Z,16.77
2017-07-15T04:39:34.479Z,14.83
2017-07-15T04:42:02.857Z,15.57
2017-07-15T04:44:30.427Z,13.47
2017-07-15T04:46:58.040Z,15.60
2017-07-15T04:49:25.612Z,15.47
2017-07-15T04:51:53.234Z,9.80
2017-07-15T04:54:20.809Z,12.67
2017-07-15T04:56:48.408Z,12.57
2017-07-15T04:59:15.967Z,14.00
2017-07-15T05:01:43.581Z,11.70
2017-07-15T05:04:11.157Z,10.47
2017-07-15T05:06:38.780Z,11.80
2017-07-15T05:09:06.328Z,11.13
2017-07-15T05:11:33.901Z,11.00
2017-07-15T05:14:01.418Z,10.67
2017-07-15T05:16:28.978Z,12.90
2017-07-15T05:18:56.658Z,11.50
2017-07-15T05:21:24.218Z,11.77
2017-07-15T05:23:51.813Z,12.70
2017-07-15T05:26:19.393Z,10.50
2017-07-15T05:28:46.973Z,7.97
2017-07-15T05:31:14.569Z,9.47
2017-07-15T05:33:42.231Z,7.97
2017-07-15T05:36:09.827Z,7.23
2017-07-15T05:38:38.138Z,8.63
2017-07-15T05:41:05.716Z,8.77
2017-07-15T05:43:33.268Z,7.73
2017-07-15T05:46:01.689Z,9.70
2017-07-15T05:48:29.392Z,7.80
2017-07-15T05:50:57.000Z,11.50
2017-07-15T05:53:24.606Z,6.03
2017-07-15T05:55:52.203Z,9.50
2017-07-15T05:58:19.819Z,8.03
2017-07-15T06:00:48.145Z,7.33
2017-07-15T06:03:15.636Z,8.50
2017-07-15T06:05:43.153Z,9.70
2017-07-15T06:08:10.649Z,6.47
2017-07-15T06:10:38.217Z,8.77
2017-07-15T06:13:05.720Z,6.93
2017-07-15T06:15:34.088Z,6.33
2017-07-15T06:18:05.716Z,5.47
2017-07-15T06:20:33.312Z,4.50
2017-07-15T06:23:00.852Z,9.20
2017-07-15T06:25:28.396Z,11.80
2017-07-15T06:27:55.930Z,9.70
2017-07-15T06:30:23.548Z,7.77
2017-07-15T06:32:54.323Z,7.93
2017-07-15T06:35:25.455Z,6.90
2017-07-15T06:37:52.979Z,6.57
2017-07-15T06:40:21.205Z,11.30
2017-07-15T06:42:48.739Z,7.70
2017-07-15T06:45:16.322Z,8.37
2017-07-15T06:47:43.902Z,8.53
2017-07-15T06:50:11.477Z,6.20
2017-07-15T06:52:39.006Z,7.57
2017-07-15T06:55:06.577Z,10.50
2017-07-15T07:00:13.869Z,9.60
2017-07-15T07:02:41.497Z,8.03
2017-07-15T07:05:09.864Z,8.73
2017-07-15T07:07:37.401Z,10.83
2017-07-15T07:10:05.082Z,6.27
2017-07-15T07:12:32.645Z,9.33
2017-07-15T07:15:00.231Z,8.50
2017-07-15T07:17:27.828Z,7.57
2017-07-15T07:19:55.385Z,6.87
2017-07-15T07:22:22.939Z,10.60
2017-07-15T07:24:50.761Z,9.70
2017-07-15T07:29:57.858Z,9.70
2017-07-15T07:32:25.376Z,8.70
2017-07-15T07:34:52.908Z,8.13
2017-07-15T07:37:20.400Z,5.20
2017-07-15T07:39:47.954Z,5.70
2017-07-15T07:42:15.487Z,4.20
2017-07-15T07:44:43.042Z,3.87
2017-07-15T07:47:10.577Z,4.43
2017-07-15T07:49:38.145Z,3.27
2017-07-15T07:52:05.686Z,5.50
2017-07-15T07:54:33.230Z,3.33
2017-07-15T07:57:00.787Z,6.43
2017-07-15T07:59:28.304Z,5.47
2017-07-15T08:01:55.835Z,4.03
2017-07-15T08:04:23.413Z,6.50
2017-07-15T08:06:50.970Z,3.37
2017-07-15T08:09:18.489Z,2.97
2017-07-15T08:11:46.042Z,4.67
2017-07-15T08:14:13.570Z,3.57
2017-07-15T08:16:41.093Z,2.70
2017-07-15T08:19:08.634Z,3.03
2017-07-15T08:21:36.194Z,2.60
2017-07-15T08:24:03.724Z,2.30
2017-07-15T08:26:31.298Z,2.50
2017-07-15T08:28:58.809Z,4.63
2017-07-15T08:31:26.352Z,8.63
2017-07-15T08:33:57.105Z,3.37
2017-07-15T08:36:24.638Z,2.33
2017-07-15T08:38:52.178Z,4.00
2017-07-15T08:41:22.761Z,2.43
2017-07-15T08:43:50.284Z,3.30
2017-07-15T08:46:17.821Z,2.97
2017-07-15T08:48:45.331Z,6.83
2017-07-15T08:51:12.863Z,2.80
2017-07-15T08:53:40.369Z,3.10
2017-07-15T08:56:07.900Z,5.23
2017-07-15T08:58:35.405Z,3.33
2017-07-15T09:01:02.932Z,2.57
2017-07-15T09:03:30.474Z,5.67
2017-07-15T09:05:58.014Z,2.17
2017-07-15T09:08:25.534Z,1.80
2017-07-15T09:10:53.057Z,1.80
2017-07-15T09:13:20.596Z,2.73
2017-07-15T09:15:48.720Z,1.93
2017-07-15T09:18:16.231Z,4.47
2017-07-15T09:20:43.779Z,2.53
2017-07-15T09:23:11.288Z,4.03
2017-07-15T09:25:39.773Z,4.80
2017-07-15T09:28:07.309Z,1.93
2017-07-15T09:30:34.870Z,6.47
2017-07-15T09:33:02.409Z,3.53
2017-07-15T09:35:29.951Z,3.70
2017-07-15T09:37:57.477Z,15.03
2017-07-15T09:40:28.771Z,2.30
2017-07-15T09:42:56.307Z,8.07
2017-07-15T09:45:24.054Z,4.73
2017-07-15T09:47:51.573Z,2.03
2017-07-15T09:50:19.121Z,1.53
2017-07-15T09:52:46.645Z,2.40
2017-07-15T09:55:14.202Z,3.43
2017-07-15T09:57:41.718Z,1.73
2017-07-15T10:00:09.266Z,1.67
2017-07-15T10:02:36.783Z,2.07
2017-07-15T10:05:04.343Z,1.47
2017-07-15T10:07:31.881Z,4.70
2017-07-15T10:09:59.412Z,2.50
2017-07-15T10:12:26.913Z,6.20
2017-07-15T10:14:54.518Z,1.40
2017-07-15T10:17:22.050Z,1.27
2017-07-15T10:19:49.592Z,3.17
2017-07-15T10:22:17.100Z,1.83
2017-07-15T10:24:44.638Z,2.10
2017-07-15T10:27:12.188Z,1.77
2017-07-15T10:29:39.747Z,1.80
2017-07-15T10:32:07.265Z,1.40
2017-07-15T10:34:34.769Z,5.17
2017-07-15T10:37:02.315Z,1.30
2017-07-15T10:39:29.862Z,1.37
2017-07-15T10:41:57.421Z,1.30
2017-07-15T10:44:24.940Z,1.50
2017-07-15T10:46:52.473Z,1.20
2017-07-15T10:49:19.981Z,1.63
2017-07-15T10:51:47.551Z,1.50
2017-07-15T10:54:15.099Z,2.47
2017-07-15T10:56:42.640Z,1.40
2017-07-15T10:59:10.162Z,1.53
2017-07-15T11:01:37.747Z,2.33
2017-07-15T11:04:05.253Z,1.40
2017-07-15T11:06:32.764Z,2.33
2017-07-15T11:09:03.416Z,1.20
2017-07-15T11:11:30.937Z,4.00
2017-07-15T11:13:58.443Z,1.60
2017-07-15T11:16:25.974Z,3.57
2017-07-15T11:18:53.493Z,1.83
2017-07-15T11:21:21.036Z,4.00
2017-07-15T11:23:48.557Z,2.80
2017-07-15T11:26:17.049Z,2.20
2017-07-15T11:28:45.282Z,1.53
2017-07-15T11:31:12.836Z,3.27
2017-07-15T11:33:40.417Z,2.30
2017-07-15T11:39:00.631Z,2.13
2017-07-15T11:41:28.174Z,1.33
2017-07-15T11:44:01.451Z,2.60
2017-07-15T11:46:28.978Z,1.63
2017-07-15T11:48:56.520Z,2.27
2017-07-15T11:51:24.058Z,2.80
2017-07-15T11:53:51.605Z,2.10
2017-07-15T11:56:19.157Z,1.57
2017-07-15T11:58:46.676Z,1.33
2017-07-15T12:01:14.218Z,1.50
2017-07-15T12:03:41.767Z,2.47
2017-07-15T12:06:09.315Z,1.80
2017-07-15T12:08:53.786Z,4.30
2017-07-15T12:11:21.337Z,5.03
2017-07-15T12:13:48.859Z,1.60
2017-07-15T12:16:16.396Z,1.37
2017-07-15T12:18:43.930Z,1.73
2017-07-15T12:21:11.477Z,2.70
2017-07-15T12:23:39.033Z,1.43
2017-07-15T12:26:06.628Z,1.60
2017-07-15T12:28:34.181Z,2.93
2017-07-15T12:31:01.762Z,1.43
2017-07-15T12:33:30.169Z,3.33
2017-07-15T12:36:06.328Z,1.63
2017-07-15T12:38:33.868Z,3.70
2017-07-15T12:41:01.427Z,1.43
2017-07-15T12:43:28.984Z,1.40
2017-07-15T12:45:56.563Z,1.80
2017-07-15T12:48:27.349Z,1.43
2017-07-15T12:50:54.883Z,2.60
2017-07-15T12:53:22.402Z,1.33
2017-07-15T12:55:49.956Z,1.47
2017-07-15T12:58:17.486Z,2.63
2017-07-15T13:00:46.025Z,2.70
2017-07-15T13:03:13.582Z,1.63
2017-07-15T13:05:41.183Z,2.13
2017-07-15T13:08:08.689Z,1.50
2017-07-15T13:10:36.222Z,5.40
2017-07-15T13:13:03.720Z,1.60
2017-07-15T13:15:31.242Z,1.33
2017-07-15T13:17:58.789Z,4.93
2017-07-15T13:20:26.330Z,1.17
2017-07-15T13:22:53.838Z,3.00
2017-07-15T13:25:21.365Z,2.10
2017-07-15T13:27:48.881Z,1.77
2017-07-15T13:30:16.425Z,2.70
2017-07-15T13:32:43.945Z,3.57
2017-07-15T13:35:11.487Z,4.20
2017-07-15T13:37:39.010Z,1.37
2017-07-15T13:40:06.533Z,1.40
2017-07-15T13:42:34.121Z,1.40
2017-07-15T13:45:01.646Z,2.07
2017-07-15T13:47:29.184Z,1.40
2017-07-15T13:49:56.739Z,5.40
2017-07-15T13:52:24.253Z,1.50
2017-07-15T13:54:51.808Z,2.23
2017-07-15T13:57:19.324Z,2.63
2017-07-15T13:59:46.881Z,1.30
2017-07-15T14:02:14.414Z,1.30
2017-07-15T14:09:27.195Z,1.53
2017-07-15T14:12:01.044Z,1.93
2017-07-15T14:14:28.710Z,1.90
2017-07-15T14:16:56.263Z,21.30
2017-07-15T14:19:23.849Z,7.07
2017-07-15T14:21:51.668Z,12.17
2017-07-15T14:24:19.311Z,7.37
2017-07-15T14:29:43.275Z,1.90
2017-07-15T14:32:10.847Z,3.37
2017-07-15T14:34:38.450Z,1.63
2017-07-15T14:37:06.120Z,1.80
2017-07-15T14:39:33.707Z,2.03
2017-07-15T14:42:01.713Z,2.13
2017-07-15T14:44:29.249Z,2.87
2017-07-15T14:46:56.796Z,2.33
2017-07-15T14:49:24.382Z,4.90
2017-07-15T14:51:52.051Z,2.20
2017-07-15T14:54:19.600Z,2.00
2017-07-15T14:56:47.228Z,3.43
2017-07-15T14:59:14.797Z,2.67
2017-07-15T15:01:42.352Z,1.63
2017-07-15T15:04:22.556Z,1.40
2017-07-15T15:07:04.661Z,3.23
2017-07-15T15:09:32.177Z,1.90
2017-07-15T15:11:59.750Z,4.53
2017-07-15T15:14:33.423Z,1.70
2017-07-15T15:17:00.991Z,1.20
2017-07-15T15:19:28.586Z,4.73
2017-07-15T15:21:56.165Z,1.53
2017-07-15T15:24:23.702Z,1.50
2017-07-15T15:26:51.287Z,3.00
2017-07-15T15:29:18.814Z,2.63
2017-07-15T15:31:46.367Z,2.27
2017-07-15T15:34:13.956Z,1.70
2017-07-15T15:36:41.508Z,1.90
2017-07-15T15:39:09.068Z,1.70
2017-07-15T15:41:36.608Z,1.70
2017-07-15T15:44:04.161Z,2.47
2017-07-15T15:46:31.746Z,1.73
2017-07-15T15:48:59.325Z,1.90
2017-07-15T15:51:26.869Z,1.73
2017-07-15T15:53:54.435Z,1.57
2017-07-15T15:56:22.004Z,3.37
2017-07-15T15:58:49.545Z,2.57
2017-07-15T16:01:17.121Z,3.17
2017-07-15T16:03:44.664Z,3.20
2017-07-15T16:06:12.197Z,2.27
2017-07-15T16:08:39.710Z,2.53
2017-07-15T16:11:07.268Z,1.73
2017-07-15T16:13:44.361Z,2.60
2017-07-15T16:16:11.893Z,4.20
2017-07-15T16:18:39.412Z,2.23
2017-07-15T16:21:06.956Z,1.70
2017-07-15T16:23:34.545Z,1.63
2017-07-15T16:26:02.088Z,1.60
2017-07-15T16:28:29.626Z,2.20
2017-07-15T16:30:57.194Z,1.60
2017-07-15T16:33:24.763Z,3.50
2017-07-15T16:35:52.373Z,1.90
2017-07-15T16:38:19.974Z,2.13
2017-07-15T16:40:47.604Z,2.60
2017-07-15T16:43:15.206Z,1.73
2017-07-15T16:45:42.788Z,1.80
2017-07-15T16:48:10.331Z,2.23
2017-07-15T16:50:37.856Z,2.93
2017-07-15T16:53:05.442Z,6.53
2017-07-15T16:55:33.022Z,5.20
2017-07-15T16:58:00.615Z,2.00
2017-07-15T17:00:28.145Z,1.97
2017-07-15T17:02:55.713Z,1.70
2017-07-15T17:05:23.302Z,1.60
2017-07-15T17:07:52.167Z,2.50
2017-07-15T17:10:29.879Z,2.60
2017-07-15T17:12:57.570Z,3.97
2017-07-15T17:15:25.289Z,3.97
2017-07-15T17:17:53.081Z,6.10
2017-07-15T17:20:21.402Z,1.90
2017-07-15T17:22:49.625Z,2.77
2017-07-15T17:25:17.260Z,2.97
2017-07-15T17:27:44.898Z,3.17
2017-07-15T17:30:12.533Z,3.13
2017-07-15T17:32:40.115Z,2.20
2017-07-15T17:35:07.761Z,2.10
2017-07-15T17:37:35.388Z,2.93
2017-07-15T17:40:02.978Z,2.67
2017-07-15T17:42:30.581Z,1.70
2017-07-15T17:44:58.302Z,3.00
2017-07-15T17:47:25.844Z,3.20
2017-07-15T17:49:53.449Z,1.90
2017-07-15T17:52:21.045Z,1.63
2017-07-15T17:55:00.492Z,2.03
2017-07-15T17:57:28.025Z,2.50
2017-07-15T17:59:55.549Z,4.80
2017-07-15T18:02:23.085Z,2.53
2017-07-15T18:04:50.604Z,2.20
2017-07-15T18:07:18.457Z,40.90
2017-07-15T18:09:45.984Z,158.73
2017-07-15T18:12:13.560Z,98.83
2017-07-15T18:14:41.173Z,11.77
2017-07-15T18:17:08.675Z,3.63
2017-07-15T18:19:36.188Z,2.57
2017-07-15T18:22:03.722Z,1.87
2017-07-15T18:24:31.249Z,2.33
2017-07-15T18:26:58.786Z,3.00
2017-07-15T18:29:26.330Z,2.23
2017-07-15T18:31:53.912Z,3.90
2017-07-15T18:34:21.464Z,3.20
2017-07-15T18:36:49.074Z,4.90
2017-07-15T18:39:16.674Z,1.80
2017-07-15T18:41:44.537Z,1.80
2017-07-15T18:44:12.262Z,2.67
2017-07-15T18:46:39.833Z,1.90
2017-07-15T18:49:07.393Z,3.43
2017-07-15T18:51:34.924Z,4.43
2017-07-15T18:54:02.498Z,3.93
2017-07-15T18:56:30.030Z,6.50
2017-07-15T18:59:02.500Z,2.00
2017-07-15T19:01:30.183Z,2.70
2017-07-15T19:03:57.793Z,1.93
2017-07-15T19:06:25.416Z,3.20
2017-07-15T19:08:53.015Z,2.50
2017-07-15T19:11:20.627Z,4.10
2017-07-15T19:13:51.192Z,2.20
2017-07-15T19:16:18.698Z,2.40
2017-07-15T19:18:46.343Z,3.67
2017-07-15T19:21:13.916Z,6.30
2017-07-15T19:23:41.611Z,2.20
2017-07-15T19:26:10.125Z,4.07
2017-07-15T19:28:37.660Z,2.33
2017-07-15T19:31:05.168Z,1.97
2017-07-15T19:33:32.715Z,2.30
2017-07-15T19:36:00.349Z,1.90
2017-07-15T19:38:27.943Z,2.23
2017-07-15T19:40:55.571Z,2.20
2017-07-15T19:43:23.210Z,2.93
2017-07-15T19:46:00.836Z,1.70
2017-07-15T19:48:28.473Z,2.23
2017-07-15T19:50:56.031Z,3.33
2017-07-15T19:53:23.749Z,1.80
2017-07-15T19:55:51.388Z,3.87
2017-07-15T19:58:18.956Z,2.87
2017-07-15T20:00:46.588Z,2.50
2017-07-15T20:03:14.150Z,2.90
2017-07-15T20:05:41.919Z,1.93
2017-07-15T20:08:09.473Z,2.50
2017-07-15T20:10:37.050Z,2.30
2017-07-15T20:13:04.665Z,1.80
2017-07-15T20:15:32.196Z,4.10
2017-07-15T20:17:59.748Z,2.57
2017-07-15T20:20:27.300Z,3.03
2017-07-15T20:23:01.021Z,3.00
2017-07-15T20:25:28.579Z,2.00
2017-07-15T20:27:56.239Z,1.90
2017-07-15T20:30:23.864Z,1.90
2017-07-15T20:32:51.424Z,3.00
2017-07-15T20:35:19.109Z,2.30
2017-07-15T20:37:46.702Z,5.27
2017-07-15T20:40:14.371Z,4.83
2017-07-15T20:42:42.077Z,2.00
2017-07-15T20:45:09.656Z,2.17
2017-07-15T20:47:37.201Z,2.57
2017-07-15T20:50:04.772Z,2.03
2017-07-15T20:52:37.908Z,3.33
2017-07-15T20:55:05.445Z,5.60
2017-07-15T20:57:33.013Z,2.57
2017-07-15T21:00:00.573Z,1.93
2017-07-15T21:02:28.182Z,2.73
2017-07-15T21:04:56.254Z,4.43
2017-07-15T21:07:23.813Z,2.70
2017-07-15T21:09:51.406Z,2.20
2017-07-15T21:12:18.985Z,2.23
2017-07-15T21:14:47.916Z,2.30
2017-07-15T21:17:15.445Z,2.07
2017-07-15T21:19:43.017Z,2.37
2017-07-15T21:22:10.564Z,2.80
2017-07-15T21:24:38.377Z,1.70
2017-07-15T21:27:05.942Z,1.70
2017-07-15T21:29:33.517Z,1.83
2017-07-15T21:32:01.071Z,2.33
2017-07-15T21:34:28.687Z,3.40
2017-07-15T21:36:56.262Z,3.83
2017-07-15T21:39:24.445Z,2.03
2017-07-15T21:41:53.545Z,2.47
2017-07-15T21:44:21.155Z,1.93
2017-07-15T21:46:48.761Z,2.80
2017-07-15T21:49:16.405Z,2.53
2017-07-15T21:51:43.986Z,2.03
2017-07-15T21:54:12.391Z,2.10
2017-07-15T21:56:39.936Z,6.40
2017-07-15T21:59:07.533Z,2.10
2017-07-15T22:01:35.165Z,2.10
2017-07-15T22:04:02.770Z,4.40
2017-07-15T22:06:32.108Z,3.70
2017-07-15T22:08:59.701Z,4.63
2017-07-15T22:11:27.314Z,3.57
2017-07-15T22:13:54.882Z,2.23
2017-07-15T22:16:22.449Z,3.20
2017-07-15T22:18:50.075Z,2.17
2017-07-15T22:21:17.628Z,8.40
2017-07-15T22:23:45.188Z,6.70
2017-07-15T22:26:13.645Z,1.93
2017-07-15T22:28:41.197Z,2.07
2017-07-15T22:31:08.745Z,3.43
2017-07-15T22:33:36.355Z,2.40
2017-07-15T22:36:03.904Z,2.97
2017-07-15T22:38:31.491Z,3.10
2017-07-15T22:40:59.018Z,3.00
2017-07-15T22:43:26.601Z,2.60
2017-07-15T22:45:54.134Z,3.20
2017-07-15T22:48:21.715Z,3.83
2017-07-15T22:50:49.247Z,2.50
2017-07-15T22:53:16.814Z,2.13
2017-07-15T22:55:44.373Z,3.53
2017-07-15T22:58:12.751Z,2.77
2017-07-15T23:00:40.357Z,3.40
2017-07-15T23:03:07.868Z,2.70
2017-07-15T23:05:35.445Z,2.37
2017-07-15T23:08:02.954Z,3.00
2017-07-15T23:10:30.551Z,2.00
2017-07-15T23:12:58.108Z,2.63
2017-07-15T23:15:25.669Z,3.80
2017-07-15T23:17:53.195Z,2.67
2017-07-15T23:20:20.741Z,3.10
2017-07-15T23:22:48.281Z,5.00
2017-07-15T23:25:15.840Z,2.77
2017-07-15T23:27:43.352Z,3.40
2017-07-15T23:30:10.878Z,5.50
2017-07-15T23:32:38.413Z,5.63
2017-07-15T23:35:05.949Z,6.33
2017-07-15T23:37:33.489Z,5.83
2017-07-15T23:40:01.009Z,4.33
2017-07-15T23:42:28.560Z,4.00
2017-07-15T23:44:56.102Z,2.97
2017-07-15T23:47:23.628Z,4.00
2017-07-15T23:49:51.186Z,2.87
2017-07-15T23:52:18.708Z,2.83
2017-07-15T23:54:46.285Z,2.57
2017-07-15T23:57:13.842Z,4.30
2017-07-15T23:59:41.403Z,2.60
